sensor_id;sensor_type;location;lat;lon;timestamp;P1;durP1;ratioP1;P2;durP2;ratioP2
44110;SDS011;29774;52.664;5.074;2023-02-11T00:01:33;12.30;;;4.40;;
44110;SDS011;29774;52.664;5.074;2023-02-11T00:03:59;14.75;;;4.00;;
44110;SDS011;29774;52.664;5.074;2023-02-11T00:06:27;10.85;;;4.40;;
44110;SDS011;29774;52.664;5.074;2023-02-11T00:08:56;14.38;;;4.18;;
44110;SDS011;29774;52.664;5.074;2023-02-11T00:11:22;16.15;;;4.57;;
44110;SDS011;29774;52.664;5.074;2023-02-11T00:13:54;9.98;;;4.22;;
44110;SDS011;29774;52.664;5.074;2023-02-11T00:16:21;15.77;;;4.78;;
44110;SDS011;29774;52.664;5.074;2023-02-11T00:18:47;18.48;;;5.07;;
44110;SDS011;29774;52.664;5.074;2023-02-11T00:21:14;18.80;;;5.55;;
44110;SDS011;29774;52.664;5.074;2023-02-11T00:23:41;17.85;;;6.03;;
44110;SDS011;29774;52.664;5.074;2023-02-11T00:26:18;13.52;;;5.25;;
44110;SDS011;29774;52.664;5.074;2023-02-11T00:28:46;15.13;;;4.57;;
44110;SDS011;29774;52.664;5.074;2023-02-11T00:31:13;14.45;;;4.50;;
44110;SDS011;29774;52.664;5.074;2023-02-11T00:33:40;8.95;;;3.65;;
44110;SDS011;29774;52.664;5.074;2023-02-11T00:36:07;16.92;;;5.65;;
44110;SDS011;29774;52.664;5.074;2023-02-11T00:38:35;8.23;;;4.32;;
44110;SDS011;29774;52.664;5.074;2023-02-11T00:41:01;10.93;;;4.88;;
44110;SDS011;29774;52.664;5.074;2023-02-11T00:43:27;14.13;;;5.07;;
44110;SDS011;29774;52.664;5.074;2023-02-11T00:45:53;18.58;;;6.13;;
44110;SDS011;29774;52.664;5.074;2023-02-11T00:48:18;11.98;;;4.55;;
44110;SDS011;29774;52.664;5.074;2023-02-11T00:50:44;13.80;;;5.32;;
44110;SDS011;29774;52.664;5.074;2023-02-11T00:53:09;10.40;;;5.65;;
44110;SDS011;29774;52.664;5.074;2023-02-11T00:55:35;13.13;;;5.53;;
44110;SDS011;29774;52.664;5.074;2023-02-11T00:58:01;9.93;;;4.68;;
44110;SDS011;29774;52.664;5.074;2023-02-11T01:00:26;12.38;;;5.90;;
44110;SDS011;29774;52.664;5.074;2023-02-11T01:02:52;6.95;;;3.55;;
44110;SDS011;29774;52.664;5.074;2023-02-11T01:05:19;13.65;;;5.35;;
44110;SDS011;29774;52.664;5.074;2023-02-11T01:07:45;10.50;;;5.07;;
44110;SDS011;29774;52.664;5.074;2023-02-11T01:10:11;12.30;;;5.72;;
44110;SDS011;29774;52.664;5.074;2023-02-11T01:12:36;12.55;;;6.47;;
44110;SDS011;29774;52.664;5.074;2023-02-11T01:15:03;11.65;;;5.28;;
44110;SDS011;29774;52.664;5.074;2023-02-11T01:17:30;13.02;;;5.93;;
44110;SDS011;29774;52.664;5.074;2023-02-11T01:19:56;21.73;;;6.93;;
44110;SDS011;29774;52.664;5.074;2023-02-11T01:22:21;11.02;;;5.70;;
44110;SDS011;29774;52.664;5.074;2023-02-11T01:24:47;9.65;;;4.45;;
44110;SDS011;29774;52.664;5.074;2023-02-11T01:27:12;17.30;;;7.15;;
44110;SDS011;29774;52.664;5.074;2023-02-11T01:29:38;15.73;;;7.43;;
44110;SDS011;29774;52.664;5.074;2023-02-11T01:32:04;11.40;;;6.93;;
44110;SDS011;29774;52.664;5.074;2023-02-11T01:34:29;13.07;;;6.45;;
44110;SDS011;29774;52.664;5.074;2023-02-11T01:36:56;13.80;;;7.22;;
44110;SDS011;29774;52.664;5.074;2023-02-11T01:39:25;16.55;;;6.50;;
44110;SDS011;29774;52.664;5.074;2023-02-11T01:41:51;14.30;;;7.05;;
44110;SDS011;29774;52.664;5.074;2023-02-11T01:44:51;14.95;;;7.25;;
44110;SDS011;29774;52.664;5.074;2023-02-11T01:47:09;17.45;;;6.95;;
44110;SDS011;29774;52.664;5.074;2023-02-11T01:49:37;15.93;;;8.70;;
44110;SDS011;29774;52.664;5.074;2023-02-11T01:52:13;18.83;;;7.20;;
44110;SDS011;29774;52.664;5.074;2023-02-11T01:54:45;18.80;;;7.68;;
44110;SDS011;29774;52.664;5.074;2023-02-11T01:57:38;16.42;;;7.30;;
44110;SDS011;29774;52.664;5.074;2023-02-11T02:10:44;15.35;;;8.27;;
44110;SDS011;29774;52.664;5.074;2023-02-11T02:13:13;11.02;;;6.32;;
44110;SDS011;29774;52.664;5.074;2023-02-11T02:15:52;19.67;;;8.35;;
44110;SDS011;29774;52.664;5.074;2023-02-11T02:18:28;16.70;;;9.23;;
44110;SDS011;29774;52.664;5.074;2023-02-11T02:21:24;15.15;;;7.65;;
44110;SDS011;29774;52.664;5.074;2023-02-11T02:35:03;18.42;;;8.25;;
44110;SDS011;29774;52.664;5.074;2023-02-11T02:37:37;18.33;;;9.13;;
44110;SDS011;29774;52.664;5.074;2023-02-11T02:40:29;18.75;;;8.95;;
44110;SDS011;29774;52.664;5.074;2023-02-11T02:43:02;16.60;;;8.88;;
44110;SDS011;29774;52.664;5.074;2023-02-11T02:45:29;23.55;;;8.98;;
44110;SDS011;29774;52.664;5.074;2023-02-11T02:47:54;20.52;;;8.82;;
44110;SDS011;29774;52.664;5.074;2023-02-11T02:50:21;14.75;;;8.10;;
44110;SDS011;29774;52.664;5.074;2023-02-11T02:53:10;20.08;;;7.05;;
44110;SDS011;29774;52.664;5.074;2023-02-11T02:55:43;20.08;;;8.40;;
44110;SDS011;29774;52.664;5.074;2023-02-11T03:04:02;16.63;;;8.68;;
44110;SDS011;29774;52.664;5.074;2023-02-11T03:06:50;18.40;;;8.60;;
44110;SDS011;29774;52.664;5.074;2023-02-11T03:09:32;19.35;;;9.95;;
44110;SDS011;29774;52.664;5.074;2023-02-11T03:12:10;17.30;;;8.57;;
44110;SDS011;29774;52.664;5.074;2023-02-11T03:14:37;22.80;;;8.88;;
44110;SDS011;29774;52.664;5.074;2023-02-11T03:17:04;20.65;;;8.85;;
44110;SDS011;29774;52.664;5.074;2023-02-11T03:19:40;17.27;;;8.20;;
44110;SDS011;29774;52.664;5.074;2023-02-11T03:22:21;18.05;;;8.38;;
44110;SDS011;29774;52.664;5.074;2023-02-11T03:24:51;16.02;;;9.00;;
44110;SDS011;29774;52.664;5.074;2023-02-11T03:27:25;16.38;;;10.20;;
44110;SDS011;29774;52.664;5.074;2023-02-11T03:30:05;21.83;;;10.73;;
44110;SDS011;29774;52.664;5.074;2023-02-11T03:32:37;21.67;;;10.15;;
44110;SDS011;29774;52.664;5.074;2023-02-11T03:35:19;20.30;;;9.75;;
44110;SDS011;29774;52.664;5.074;2023-02-11T03:37:50;21.08;;;10.70;;
44110;SDS011;29774;52.664;5.074;2023-02-11T03:40:26;16.65;;;9.27;;
44110;SDS011;29774;52.664;5.074;2023-02-11T03:42:57;17.70;;;10.18;;
44110;SDS011;29774;52.664;5.074;2023-02-11T03:45:24;20.38;;;10.30;;
44110;SDS011;29774;52.664;5.074;2023-02-11T03:48:02;18.80;;;10.50;;
44110;SDS011;29774;52.664;5.074;2023-02-11T03:50:31;17.58;;;11.52;;
44110;SDS011;29774;52.664;5.074;2023-02-11T03:52:59;23.08;;;11.43;;
44110;SDS011;29774;52.664;5.074;2023-02-11T03:55:26;18.42;;;11.70;;
44110;SDS011;29774;52.664;5.074;2023-02-11T03:57:54;23.67;;;10.70;;
44110;SDS011;29774;52.664;5.074;2023-02-11T04:00:20;23.55;;;10.52;;
44110;SDS011;29774;52.664;5.074;2023-02-11T04:02:45;18.52;;;11.07;;
44110;SDS011;29774;52.664;5.074;2023-02-11T04:05:13;22.40;;;11.00;;
44110;SDS011;29774;52.664;5.074;2023-02-11T04:07:39;24.10;;;11.50;;
44110;SDS011;29774;52.664;5.074;2023-02-11T04:10:05;18.55;;;10.90;;
44110;SDS011;29774;52.664;5.074;2023-02-11T04:12:31;22.33;;;11.20;;
44110;SDS011;29774;52.664;5.074;2023-02-11T04:14:57;21.42;;;11.90;;
44110;SDS011;29774;52.664;5.074;2023-02-11T04:17:22;21.40;;;12.05;;
44110;SDS011;29774;52.664;5.074;2023-02-11T04:19:48;21.25;;;10.77;;
44110;SDS011;29774;52.664;5.074;2023-02-11T04:22:14;23.25;;;12.02;;
44110;SDS011;29774;52.664;5.074;2023-02-11T04:24:39;28.00;;;12.43;;
44110;SDS011;29774;52.664;5.074;2023-02-11T04:27:07;17.75;;;11.00;;
44110;SDS011;29774;52.664;5.074;2023-02-11T04:29:33;22.75;;;12.82;;
44110;SDS011;29774;52.664;5.074;2023-02-11T04:31:59;22.65;;;11.23;;
44110;SDS011;29774;52.664;5.074;2023-02-11T04:34:24;19.60;;;11.27;;
44110;SDS011;29774;52.664;5.074;2023-02-11T04:36:50;20.23;;;10.63;;
44110;SDS011;29774;52.664;5.074;2023-02-11T04:39:16;20.88;;;11.32;;
44110;SDS011;29774;52.664;5.074;2023-02-11T04:41:41;19.63;;;11.50;;
44110;SDS011;29774;52.664;5.074;2023-02-11T04:44:07;18.27;;;10.68;;
44110;SDS011;29774;52.664;5.074;2023-02-11T04:46:33;21.75;;;10.95;;
44110;SDS011;29774;52.664;5.074;2023-02-11T04:48:58;16.30;;;10.93;;
44110;SDS011;29774;52.664;5.074;2023-02-11T04:51:24;20.42;;;11.02;;
44110;SDS011;29774;52.664;5.074;2023-02-11T04:53:49;15.93;;;10.10;;
44110;SDS011;29774;52.664;5.074;2023-02-11T04:56:15;18.23;;;10.50;;
44110;SDS011;29774;52.664;5.074;2023-02-11T04:58:41;18.98;;;10.38;;
44110;SDS011;29774;52.664;5.074;2023-02-11T05:01:07;19.33;;;10.27;;
44110;SDS011;29774;52.664;5.074;2023-02-11T05:03:34;18.00;;;10.55;;
44110;SDS011;29774;52.664;5.074;2023-02-11T05:06:00;19.45;;;10.45;;
44110;SDS011;29774;52.664;5.074;2023-02-11T05:08:26;19.17;;;10.13;;
44110;SDS011;29774;52.664;5.074;2023-02-11T05:10:52;17.90;;;9.82;;
44110;SDS011;29774;52.664;5.074;2023-02-11T05:13:17;19.52;;;10.10;;
44110;SDS011;29774;52.664;5.074;2023-02-11T05:15:43;18.98;;;10.02;;
44110;SDS011;29774;52.664;5.074;2023-02-11T05:18:08;18.58;;;10.68;;
44110;SDS011;29774;52.664;5.074;2023-02-11T05:20:36;19.80;;;10.80;;
44110;SDS011;29774;52.664;5.074;2023-02-11T05:23:02;17.23;;;9.98;;
44110;SDS011;29774;52.664;5.074;2023-02-11T05:25:28;17.40;;;10.32;;
44110;SDS011;29774;52.664;5.074;2023-02-11T05:27:54;18.00;;;10.55;;
44110;SDS011;29774;52.664;5.074;2023-02-11T05:30:20;24.50;;;10.75;;
44110;SDS011;29774;52.664;5.074;2023-02-11T05:32:45;21.73;;;10.73;;
44110;SDS011;29774;52.664;5.074;2023-02-11T05:35:11;15.93;;;9.63;;
44110;SDS011;29774;52.664;5.074;2023-02-11T05:37:36;19.02;;;9.98;;
44110;SDS011;29774;52.664;5.074;2023-02-11T05:40:02;22.67;;;10.70;;
44110;SDS011;29774;52.664;5.074;2023-02-11T05:42:28;20.67;;;10.57;;
44110;SDS011;29774;52.664;5.074;2023-02-11T05:44:54;16.73;;;10.25;;
44110;SDS011;29774;52.664;5.074;2023-02-11T05:47:19;15.52;;;10.82;;
44110;SDS011;29774;52.664;5.074;2023-02-11T05:49:45;18.33;;;10.05;;
44110;SDS011;29774;52.664;5.074;2023-02-11T05:52:11;18.83;;;11.32;;
44110;SDS011;29774;52.664;5.074;2023-02-11T05:54:37;23.45;;;10.38;;
44110;SDS011;29774;52.664;5.074;2023-02-11T05:57:02;20.63;;;11.32;;
44110;SDS011;29774;52.664;5.074;2023-02-11T05:59:28;25.30;;;11.57;;
44110;SDS011;29774;52.664;5.074;2023-02-11T06:01:53;18.98;;;10.65;;
44110;SDS011;29774;52.664;5.074;2023-02-11T06:04:19;23.23;;;10.65;;
44110;SDS011;29774;52.664;5.074;2023-02-11T06:06:45;17.85;;;11.13;;
44110;SDS011;29774;52.664;5.074;2023-02-11T06:09:10;18.13;;;10.10;;
44110;SDS011;29774;52.664;5.074;2023-02-11T06:11:36;20.98;;;11.15;;
44110;SDS011;29774;52.664;5.074;2023-02-11T06:14:02;18.15;;;10.63;;
44110;SDS011;29774;52.664;5.074;2023-02-11T06:16:28;16.88;;;10.77;;
44110;SDS011;29774;52.664;5.074;2023-02-11T06:18:53;23.08;;;11.38;;
44110;SDS011;29774;52.664;5.074;2023-02-11T06:21:19;20.42;;;11.45;;
44110;SDS011;29774;52.664;5.074;2023-02-11T06:23:45;22.00;;;11.50;;
44110;SDS011;29774;52.664;5.074;2023-02-11T06:26:15;19.52;;;10.40;;
44110;SDS011;29774;52.664;5.074;2023-02-11T06:28:43;20.52;;;11.18;;
44110;SDS011;29774;52.664;5.074;2023-02-11T06:31:09;21.33;;;11.65;;
44110;SDS011;29774;52.664;5.074;2023-02-11T06:33:35;18.45;;;10.93;;
44110;SDS011;29774;52.664;5.074;2023-02-11T06:36:02;20.27;;;11.10;;
44110;SDS011;29774;52.664;5.074;2023-02-11T06:38:29;20.42;;;11.60;;
44110;SDS011;29774;52.664;5.074;2023-02-11T06:40:54;20.27;;;10.38;;
44110;SDS011;29774;52.664;5.074;2023-02-11T06:43:20;23.60;;;11.63;;
44110;SDS011;29774;52.664;5.074;2023-02-11T06:45:51;18.23;;;10.43;;
44110;SDS011;29774;52.664;5.074;2023-02-11T06:48:18;21.25;;;10.55;;
44110;SDS011;29774;52.664;5.074;2023-02-11T06:50:44;20.02;;;10.45;;
44110;SDS011;29774;52.664;5.074;2023-02-11T06:53:09;20.88;;;11.20;;
44110;SDS011;29774;52.664;5.074;2023-02-11T06:55:35;21.92;;;10.65;;
44110;SDS011;29774;52.664;5.074;2023-02-11T06:58:00;19.17;;;10.98;;
44110;SDS011;29774;52.664;5.074;2023-02-11T07:00:26;18.13;;;10.45;;
44110;SDS011;29774;52.664;5.074;2023-02-11T07:02:53;16.50;;;10.13;;
44110;SDS011;29774;52.664;5.074;2023-02-11T07:05:18;21.65;;;11.05;;
44110;SDS011;29774;52.664;5.074;2023-02-11T07:07:44;21.33;;;10.38;;
44110;SDS011;29774;52.664;5.074;2023-02-11T07:10:10;17.15;;;11.45;;
44110;SDS011;29774;52.664;5.074;2023-02-11T07:12:35;18.70;;;11.20;;
44110;SDS011;29774;52.664;5.074;2023-02-11T07:15:01;17.95;;;10.75;;
44110;SDS011;29774;52.664;5.074;2023-02-11T07:17:27;21.23;;;11.68;;
44110;SDS011;29774;52.664;5.074;2023-02-11T07:19:52;22.15;;;11.18;;
44110;SDS011;29774;52.664;5.074;2023-02-11T07:22:18;18.88;;;10.85;;
44110;SDS011;29774;52.664;5.074;2023-02-11T07:24:44;21.63;;;10.98;;
44110;SDS011;29774;52.664;5.074;2023-02-11T07:27:09;18.02;;;10.30;;
44110;SDS011;29774;52.664;5.074;2023-02-11T07:29:35;26.75;;;11.95;;
44110;SDS011;29774;52.664;5.074;2023-02-11T07:32:01;20.27;;;11.18;;
44110;SDS011;29774;52.664;5.074;2023-02-11T07:34:26;18.65;;;10.48;;
44110;SDS011;29774;52.664;5.074;2023-02-11T07:36:52;20.15;;;10.30;;
44110;SDS011;29774;52.664;5.074;2023-02-11T07:39:18;22.08;;;10.55;;
44110;SDS011;29774;52.664;5.074;2023-02-11T07:41:45;19.35;;;11.43;;
44110;SDS011;29774;52.664;5.074;2023-02-11T07:44:12;24.20;;;13.52;;
44110;SDS011;29774;52.664;5.074;2023-02-11T07:46:38;27.30;;;12.98;;
44110;SDS011;29774;52.664;5.074;2023-02-11T07:49:08;20.92;;;11.40;;
44110;SDS011;29774;52.664;5.074;2023-02-11T07:51:34;24.63;;;13.82;;
44110;SDS011;29774;52.664;5.074;2023-02-11T07:53:59;20.38;;;11.90;;
44110;SDS011;29774;52.664;5.074;2023-02-11T07:56:26;18.88;;;11.25;;
44110;SDS011;29774;52.664;5.074;2023-02-11T07:58:52;19.52;;;10.57;;
44110;SDS011;29774;52.664;5.074;2023-02-11T08:01:21;17.83;;;10.85;;
44110;SDS011;29774;52.664;5.074;2023-02-11T08:03:49;17.55;;;9.88;;
44110;SDS011;29774;52.664;5.074;2023-02-11T08:06:16;18.48;;;10.18;;
44110;SDS011;29774;52.664;5.074;2023-02-11T08:08:44;21.73;;;10.75;;
44110;SDS011;29774;52.664;5.074;2023-02-11T08:11:11;18.65;;;10.30;;
44110;SDS011;29774;52.664;5.074;2023-02-11T08:13:42;25.20;;;10.07;;
44110;SDS011;29774;52.664;5.074;2023-02-11T08:16:16;25.25;;;10.05;;
44110;SDS011;29774;52.664;5.074;2023-02-11T08:18:44;20.15;;;9.48;;
44110;SDS011;29774;52.664;5.074;2023-02-11T08:21:10;19.58;;;10.18;;
44110;SDS011;29774;52.664;5.074;2023-02-11T08:23:36;21.52;;;10.05;;
44110;SDS011;29774;52.664;5.074;2023-02-11T08:26:07;17.58;;;9.38;;
44110;SDS011;29774;52.664;5.074;2023-02-11T08:28:35;15.68;;;9.05;;
44110;SDS011;29774;52.664;5.074;2023-02-11T08:31:06;18.70;;;9.15;;
44110;SDS011;29774;52.664;5.074;2023-02-11T08:33:33;12.52;;;8.38;;
44110;SDS011;29774;52.664;5.074;2023-02-11T08:35:59;16.60;;;9.35;;
44110;SDS011;29774;52.664;5.074;2023-02-11T08:38:25;18.83;;;8.60;;
44110;SDS011;29774;52.664;5.074;2023-02-11T08:40:50;18.42;;;8.40;;
44110;SDS011;29774;52.664;5.074;2023-02-11T08:43:16;20.20;;;9.43;;
44110;SDS011;29774;52.664;5.074;2023-02-11T08:45:42;16.70;;;8.98;;
44110;SDS011;29774;52.664;5.074;2023-02-11T08:48:08;14.43;;;8.85;;
44110;SDS011;29774;52.664;5.074;2023-02-11T08:50:34;15.35;;;8.88;;
44110;SDS011;29774;52.664;5.074;2023-02-11T08:53:02;16.45;;;8.55;;
44110;SDS011;29774;52.664;5.074;2023-02-11T08:55:28;15.93;;;8.45;;
44110;SDS011;29774;52.664;5.074;2023-02-11T08:57:54;12.30;;;8.10;;
44110;SDS011;29774;52.664;5.074;2023-02-11T09:00:20;16.05;;;8.18;;
44110;SDS011;29774;52.664;5.074;2023-02-11T09:02:46;26.45;;;8.73;;
44110;SDS011;29774;52.664;5.074;2023-02-11T09:05:12;16.13;;;7.70;;
44110;SDS011;29774;52.664;5.074;2023-02-11T09:07:38;19.98;;;8.48;;
44110;SDS011;29774;52.664;5.074;2023-02-11T09:10:03;15.18;;;8.32;;
44110;SDS011;29774;52.664;5.074;2023-02-11T09:12:30;20.80;;;8.23;;
44110;SDS011;29774;52.664;5.074;2023-02-11T09:14:55;14.52;;;7.90;;
44110;SDS011;29774;52.664;5.074;2023-02-11T09:17:21;23.63;;;7.65;;
44110;SDS011;29774;52.664;5.074;2023-02-11T09:19:47;13.35;;;7.15;;
44110;SDS011;29774;52.664;5.074;2023-02-11T09:22:12;15.93;;;7.82;;
44110;SDS011;29774;52.664;5.074;2023-02-11T09:24:38;14.70;;;7.50;;
44110;SDS011;29774;52.664;5.074;2023-02-11T09:27:04;15.70;;;7.10;;
44110;SDS011;29774;52.664;5.074;2023-02-11T09:29:30;12.52;;;7.45;;
44110;SDS011;29774;52.664;5.074;2023-02-11T09:31:55;12.68;;;6.07;;
44110;SDS011;29774;52.664;5.074;2023-02-11T09:34:21;11.38;;;6.32;;
44110;SDS011;29774;52.664;5.074;2023-02-11T09:36:47;16.27;;;6.38;;
44110;SDS011;29774;52.664;5.074;2023-02-11T09:39:16;11.85;;;6.15;;
44110;SDS011;29774;52.664;5.074;2023-02-11T09:42:06;9.55;;;6.45;;
44110;SDS011;29774;52.664;5.074;2023-02-11T09:44:44;7.65;;;6.20;;
44110;SDS011;29774;52.664;5.074;2023-02-11T09:55:28;9.52;;;5.00;;
44110;SDS011;29774;52.664;5.074;2023-02-11T09:58:02;15.82;;;5.63;;
44110;SDS011;29774;52.664;5.074;2023-02-11T10:01:22;5.40;;;4.30;;
44110;SDS011;29774;52.664;5.074;2023-02-11T10:03:20;9.10;;;5.13;;
44110;SDS011;29774;52.664;5.074;2023-02-11T10:06:05;7.60;;;4.13;;
44110;SDS011;29774;52.664;5.074;2023-02-11T10:11:25;5.63;;;3.83;;
44110;SDS011;29774;52.664;5.074;2023-02-11T10:24:14;7.43;;;3.38;;
44110;SDS011;29774;52.664;5.074;2023-02-11T10:26:41;7.80;;;4.05;;
44110;SDS011;29774;52.664;5.074;2023-02-11T10:29:24;4.43;;;3.20;;
44110;SDS011;29774;52.664;5.074;2023-02-11T10:31:57;5.15;;;2.97;;
44110;SDS011;29774;52.664;5.074;2023-02-11T10:34:24;12.13;;;5.88;;
44110;SDS011;29774;52.664;5.074;2023-02-11T10:36:50;6.60;;;4.30;;
44110;SDS011;29774;52.664;5.074;2023-02-11T10:39:19;4.47;;;3.28;;
44110;SDS011;29774;52.664;5.074;2023-02-11T10:41:49;4.10;;;2.92;;
44110;SDS011;29774;52.664;5.074;2023-02-11T10:44:27;3.00;;;2.50;;
44110;SDS011;29774;52.664;5.074;2023-02-11T10:46:54;7.95;;;2.85;;
44110;SDS011;29774;52.664;5.074;2023-02-11T10:49:32;3.10;;;2.47;;
44110;SDS011;29774;52.664;5.074;2023-02-11T10:52:13;5.50;;;3.85;;
44110;SDS011;29774;52.664;5.074;2023-02-11T10:54:54;3.80;;;3.40;;
44110;SDS011;29774;52.664;5.074;2023-02-11T10:57:39;4.78;;;2.08;;
44110;SDS011;29774;52.664;5.074;2023-02-11T11:00:34;6.95;;;2.60;;
44110;SDS011;29774;52.664;5.074;2023-02-11T11:03:17;5.07;;;2.25;;
44110;SDS011;29774;52.664;5.074;2023-02-11T11:05:49;6.30;;;2.72;;
44110;SDS011;29774;52.664;5.074;2023-02-11T11:08:15;3.78;;;2.15;;
44110;SDS011;29774;52.664;5.074;2023-02-11T11:10:48;6.43;;;3.20;;
44110;SDS011;29774;52.664;5.074;2023-02-11T11:13:29;4.38;;;1.83;;
44110;SDS011;29774;52.664;5.074;2023-02-11T11:18:37;2.85;;;2.03;;
44110;SDS011;29774;52.664;5.074;2023-02-11T11:21:05;4.35;;;2.63;;
44110;SDS011;29774;52.664;5.074;2023-02-11T11:23:54;3.70;;;1.98;;
44110;SDS011;29774;52.664;5.074;2023-02-11T11:26:23;2.88;;;1.90;;
44110;SDS011;29774;52.664;5.074;2023-02-11T11:28:53;3.28;;;1.85;;
44110;SDS011;29774;52.664;5.074;2023-02-11T11:31:23;6.90;;;2.80;;
44110;SDS011;29774;52.664;5.074;2023-02-11T11:33:50;3.00;;;1.65;;
44110;SDS011;29774;52.664;5.074;2023-02-11T11:36:22;2.25;;;1.48;;
44110;SDS011;29774;52.664;5.074;2023-02-11T11:38:56;2.95;;;1.70;;
44110;SDS011;29774;52.664;5.074;2023-02-11T11:41:26;2.85;;;1.63;;
44110;SDS011;29774;52.664;5.074;2023-02-11T11:43:55;2.80;;;1.40;;
44110;SDS011;29774;52.664;5.074;2023-02-11T11:46:22;4.22;;;2.92;;
44110;SDS011;29774;52.664;5.074;2023-02-11T11:48:55;3.15;;;1.85;;
44110;SDS011;29774;52.664;5.074;2023-02-11T11:51:31;3.97;;;1.52;;
44110;SDS011;29774;52.664;5.074;2023-02-11T11:53:59;1.75;;;1.60;;
44110;SDS011;29774;52.664;5.074;2023-02-11T11:56:34;5.55;;;2.10;;
44110;SDS011;29774;52.664;5.074;2023-02-11T11:59:08;3.60;;;1.92;;
44110;SDS011;29774;52.664;5.074;2023-02-11T12:01:42;2.25;;;1.60;;
44110;SDS011;29774;52.664;5.074;2023-02-11T12:04:22;2.40;;;1.42;;
44110;SDS011;29774;52.664;5.074;2023-02-11T12:12:25;3.10;;;1.95;;
44110;SDS011;29774;52.664;5.074;2023-02-11T12:22:58;2.75;;;1.48;;
44110;SDS011;29774;52.664;5.074;2023-02-11T12:36:26;2.13;;;1.90;;
44110;SDS011;29774;52.664;5.074;2023-02-11T12:56:20;6.60;;;2.70;;
44110;SDS011;29774;52.664;5.074;2023-02-11T12:58:57;2.67;;;1.50;;
44110;SDS011;29774;52.664;5.074;2023-02-11T13:01:27;3.47;;;1.85;;
44110;SDS011;29774;52.664;5.074;2023-02-11T13:03:56;1.83;;;1.60;;
44110;SDS011;29774;52.664;5.074;2023-02-11T13:06:41;1.85;;;1.20;;
44110;SDS011;29774;52.664;5.074;2023-02-11T13:09:19;3.08;;;1.58;;
44110;SDS011;29774;52.664;5.074;2023-02-11T13:11:50;2.90;;;1.77;;
44110;SDS011;29774;52.664;5.074;2023-02-11T13:14:25;5.15;;;2.28;;
44110;SDS011;29774;52.664;5.074;2023-02-11T13:16:59;1.65;;;1.42;;
44110;SDS011;29774;52.664;5.074;2023-02-11T13:19:33;1.98;;;1.00;;
44110;SDS011;29774;52.664;5.074;2023-02-11T13:27:50;2.90;;;1.80;;
44110;SDS011;29774;52.664;5.074;2023-02-11T13:30:26;4.22;;;1.67;;
44110;SDS011;29774;52.664;5.074;2023-02-11T13:35:34;4.28;;;2.05;;
44110;SDS011;29774;52.664;5.074;2023-02-11T13:38:23;3.63;;;1.95;;
44110;SDS011;29774;52.664;5.074;2023-02-11T13:41:38;6.43;;;2.75;;
44110;SDS011;29774;52.664;5.074;2023-02-11T13:46:49;2.88;;;1.90;;
44110;SDS011;29774;52.664;5.074;2023-02-11T13:49:25;1.95;;;1.42;;
44110;SDS011;29774;52.664;5.074;2023-02-11T13:51:52;2.92;;;2.30;;
44110;SDS011;29774;52.664;5.074;2023-02-11T13:54:24;3.10;;;2.53;;
44110;SDS011;29774;52.664;5.074;2023-02-11T13:57:18;6.18;;;2.17;;
44110;SDS011;29774;52.664;5.074;2023-02-11T14:05:08;3.58;;;1.60;;
44110;SDS011;29774;52.664;5.074;2023-02-11T14:10:55;5.22;;;2.03;;
44110;SDS011;29774;52.664;5.074;2023-02-11T14:13:33;5.18;;;3.13;;
44110;SDS011;29774;52.664;5.074;2023-02-11T14:16:13;5.20;;;2.45;;
44110;SDS011;29774;52.664;5.074;2023-02-11T14:26:46;5.53;;;2.28;;
44110;SDS011;29774;52.664;5.074;2023-02-11T14:32:09;3.30;;;2.50;;
44110;SDS011;29774;52.664;5.074;2023-02-11T14:42:40;4.43;;;2.20;;
44110;SDS011;29774;52.664;5.074;2023-02-11T14:45:10;4.43;;;1.98;;
44110;SDS011;29774;52.664;5.074;2023-02-11T14:50:23;2.45;;;1.80;;
44110;SDS011;29774;52.664;5.074;2023-02-11T14:52:52;6.32;;;2.30;;
44110;SDS011;29774;52.664;5.074;2023-02-11T14:55:26;3.38;;;1.70;;
44110;SDS011;29774;52.664;5.074;2023-02-11T15:00:49;4.20;;;1.90;;
44110;SDS011;29774;52.664;5.074;2023-02-11T15:03:25;4.38;;;2.30;;
44110;SDS011;29774;52.664;5.074;2023-02-11T15:05:59;7.68;;;2.38;;
44110;SDS011;29774;52.664;5.074;2023-02-11T15:08:25;4.80;;;2.13;;
44110;SDS011;29774;52.664;5.074;2023-02-11T15:10:52;7.50;;;2.50;;
44110;SDS011;29774;52.664;5.074;2023-02-11T15:13:20;9.63;;;3.05;;
44110;SDS011;29774;52.664;5.074;2023-02-11T15:15:53;4.90;;;1.90;;
44110;SDS011;29774;52.664;5.074;2023-02-11T15:18:22;6.15;;;1.80;;
44110;SDS011;29774;52.664;5.074;2023-02-11T15:20:53;5.22;;;2.30;;
44110;SDS011;29774;52.664;5.074;2023-02-11T15:23:21;9.77;;;2.65;;
44110;SDS011;29774;52.664;5.074;2023-02-11T15:25:49;8.85;;;2.22;;
44110;SDS011;29774;52.664;5.074;2023-02-11T15:28:30;7.93;;;1.92;;
44110;SDS011;29774;52.664;5.074;2023-02-11T15:33:24;4.50;;;1.75;;
44110;SDS011;29774;52.664;5.074;2023-02-11T15:35:53;6.05;;;1.58;;
44110;SDS011;29774;52.664;5.074;2023-02-11T15:38:20;5.72;;;2.35;;
44110;SDS011;29774;52.664;5.074;2023-02-11T15:40:53;6.38;;;1.80;;
44110;SDS011;29774;52.664;5.074;2023-02-11T15:43:24;5.35;;;2.17;;
44110;SDS011;29774;52.664;5.074;2023-02-11T15:46:05;5.38;;;2.20;;
44110;SDS011;29774;52.664;5.074;2023-02-11T15:48:36;5.93;;;2.08;;
44110;SDS011;29774;52.664;5.074;2023-02-11T15:51:10;3.95;;;1.65;;
44110;SDS011;29774;52.664;5.074;2023-02-11T15:53:49;9.30;;;2.05;;
44110;SDS011;29774;52.664;5.074;2023-02-11T15:56:28;4.72;;;2.10;;
44110;SDS011;29774;52.664;5.074;2023-02-11T15:59:07;9.13;;;2.80;;
44110;SDS011;29774;52.664;5.074;2023-02-11T16:01:38;2.83;;;1.55;;
44110;SDS011;29774;52.664;5.074;2023-02-11T16:04:04;5.03;;;2.42;;
44110;SDS011;29774;52.664;5.074;2023-02-11T16:06:37;3.85;;;2.08;;
44110;SDS011;29774;52.664;5.074;2023-02-11T16:11:52;4.97;;;2.15;;
44110;SDS011;29774;52.664;5.074;2023-02-11T16:14:21;4.75;;;2.10;;
44110;SDS011;29774;52.664;5.074;2023-02-11T16:17:02;4.22;;;2.17;;
44110;SDS011;29774;52.664;5.074;2023-02-11T16:19:32;4.07;;;2.17;;
44110;SDS011;29774;52.664;5.074;2023-02-11T16:22:00;7.03;;;2.67;;
44110;SDS011;29774;52.664;5.074;2023-02-11T16:24:33;4.70;;;2.00;;
44110;SDS011;29774;52.664;5.074;2023-02-11T16:27:06;8.23;;;3.22;;
44110;SDS011;29774;52.664;5.074;2023-02-11T16:29:47;5.53;;;2.50;;
44110;SDS011;29774;52.664;5.074;2023-02-11T16:32:17;7.93;;;2.78;;
44110;SDS011;29774;52.664;5.074;2023-02-11T16:34:44;8.63;;;2.58;;
44110;SDS011;29774;52.664;5.074;2023-02-11T16:37:10;5.80;;;2.20;;
44110;SDS011;29774;52.664;5.074;2023-02-11T16:39:36;4.97;;;2.28;;
44110;SDS011;29774;52.664;5.074;2023-02-11T16:42:02;7.10;;;2.17;;
44110;SDS011;29774;52.664;5.074;2023-02-11T16:44:28;9.07;;;2.58;;
44110;SDS011;29774;52.664;5.074;2023-02-11T16:46:54;6.07;;;2.85;;
44110;SDS011;29774;52.664;5.074;2023-02-11T16:49:24;8.85;;;2.42;;
44110;SDS011;29774;52.664;5.074;2023-02-11T16:51:53;4.38;;;2.35;;
44110;SDS011;29774;52.664;5.074;2023-02-11T16:54:25;7.35;;;2.45;;
44110;SDS011;29774;52.664;5.074;2023-02-11T16:56:51;9.30;;;2.70;;
44110;SDS011;29774;52.664;5.074;2023-02-11T16:59:16;7.20;;;2.60;;
44110;SDS011;29774;52.664;5.074;2023-02-11T17:01:42;7.05;;;2.33;;
44110;SDS011;29774;52.664;5.074;2023-02-11T17:04:16;8.98;;;2.50;;
44110;SDS011;29774;52.664;5.074;2023-02-11T17:06:44;8.13;;;2.75;;
44110;SDS011;29774;52.664;5.074;2023-02-11T17:09:14;8.18;;;2.40;;
44110;SDS011;29774;52.664;5.074;2023-02-11T17:11:45;7.30;;;2.20;;
44110;SDS011;29774;52.664;5.074;2023-02-11T17:14:10;9.20;;;2.22;;